Presidente Dutra, Brazil
Current Conditions -  °F | °C
As of 6:00 PM on Sunday 21 Dec 2014 (Local Time) from SBTE Reporting Station
Clear Clear  
Wind Chill: 97°   Ceiling: Unl
Heat Index: 97°   Visibility: 6mi
Dew Point: 59°   Wind: 5mph
Humidity: 28%   Direction: 110°ESE
Pressure: 29.74"   Gusts: NA
Location:  5.29°S, 44.49°W
Report Text: SBTE 212100Z 11004KT CAVOK 36/15 Q1007
Loading
Personal Weather Stations






























Interactive Weather Map New forecast layout! Learn more

10-Day Weather Forecast

Advertisements
Track Severe Weather on mobile